Nearby METAR Reports

 

KOXC - Oxford/Waterbury, Connecticut, USA
Distance from station: SE 8mi, 12km
Updated: Wed, 19-Sep-2018 6:51am EDT
Clear
Clear
 Wind from NNE
Wind: NNE 9 mph , 15 km/h
Temperature: 66°F , 19°C
Dew Point: 64°F , 18°C
Humidity: 94%
Barometer: 29.87 inHg , 1011.5 hPa
Clouds: Clear
Visibility: 10 miles , 16 km
2018/09/19 10:51 KOXC 191051Z 03008KT 10SM CLR 19/18 A2987 RMK AO2 SLP121 T01890178
KDXR - Danbury, Connecticut, USA
Distance from station: SW 19mi, 30km
Updated: Wed, 19-Sep-2018 7:10am EDT
Mist, Clear
Mist, Clear
 Wind from calm
Wind: Calm
Temperature: 61°F , 16°C
Dew Point: 61°F , 16°C
Humidity: 100%
Barometer: 29.88 inHg , 1011.9 hPa
Summary: Mist
Clouds: Clear
Visibility: 5 miles , 8 km
2018/09/19 11:10 KDXR 191110Z 00000KT 5SM BR CLR 16/16 A2988 RMK AO2 T01560156
 
KMMK - Meriden, Connecticut, USA
Distance from station: E 20mi, 33km
Updated: Wed, 19-Sep-2018 6:53am EDT
Clear
Clear
 Wind from NNE
Wind: NNE 6 mph , 9 km/h
Temperature: 66°F , 19°C
Dew Point: 64°F , 18°C
Humidity: 94%
Barometer: 29.85 inHg , 1010.8 hPa
Clouds: Clear
Visibility: 10 miles , 16 km
2018/09/19 10:53 KMMK 191053Z AUTO 03005KT 10SM CLR 19/18 A2985 RMK AO2 SLP105 T01890178
KBDR - Bridgeport, Connecticut, USA
Distance from station: S 27mi, 44km
Updated: Wed, 19-Sep-2018 6:52am EDT
Clear
Clear
 Wind from N
Wind: N 7 mph , 11 km/h
Temperature: 70°F , 21°C
Dew Point: 64°F , 18°C
Humidity: 83%
Barometer: 29.83 inHg , 1010.2 hPa
Clouds: Clear
Visibility: 10 miles , 16 km
2018/09/19 10:52 KBDR 191052Z 36006KT 10SM CLR 21/18 A2983 RMK AO2 SLP100 T02060183
 
KHVN - New Haven/Tweed, Connecticut, USA
Distance from station: SE 27mi, 44km
Updated: Wed, 19-Sep-2018 6:53am EDT
Clear
Clear
 Wind from N
Wind: N 12 mph , 19 km/h
Temperature: 70°F , 21°C
Dew Point: 66°F , 19°C
Humidity: 88%
Barometer: 29.83 inHg , 1010.2 hPa
Clouds: Clear
Visibility: 10 miles , 16 km
2018/09/19 10:53 KHVN 191053Z 01010KT 10SM CLR 21/19 A2983 RMK AO2 SLP100 T02060189
KHFD - Hartford/Brainar, Connecticut, USA
Distance from station: ENE 32mi, 52km
Updated: Wed, 19-Sep-2018 7:21am EDT
Partly cloudy
Partly cloudy
 Wind from N
Wind: N 7 mph , 11 km/h
Temperature: 66°F , 19°C
Dew Point: 66°F , 19°C
Humidity: 100%
Barometer: 29.86 inHg , 1011.2 hPa
Clouds: Partly cloudy
Visibility: 10 miles , 16 km
Cloud details: Partly cloudy 500 ft
2018/09/19 11:21 KHFD 191121Z 01006KT 10SM SCT005 19/19 A2986 RMK AO2 T01940189
 
KPOU - Poughkeepsie, New York, USA
Distance from station: W 35mi, 56km
Updated: Wed, 19-Sep-2018 7:33am EDT
Mist, Overcast
Mist, Overcast
 Wind from calm
Wind: Calm
Temperature: 63°F , 17°C
Dew Point: 63°F , 17°C
Humidity: 100%
Barometer: 29.87 inHg , 1011.5 hPa
Summary: Mist
Clouds: Overcast
Visibility: 2 miles , 3 km
Cloud details: Overcast 300 ft
2018/09/19 11:33 KPOU 191133Z 00000KT 2SM BR OVC003 17/17 A2987 RMK AO2 T01670167
KBDL - Windsor Locks, Connecticut, USA
Distance from station: NE 38mi, 62km
Updated: Wed, 19-Sep-2018 6:51am EDT
Partly cloudy
Partly cloudy
 Wind from N
Wind: N 7 mph , 11 km/h
Temperature: 66°F , 19°C
Dew Point: 64°F , 18°C
Humidity: 94%
Barometer: 29.86 inHg , 1011.2 hPa
Clouds: Partly cloudy
Visibility: 10 miles , 16 km
Cloud details: Few Clouds 5500 ft
Partly cloudy 25000 ft
2018/09/19 10:51 KBDL 191051Z 36006KT 10SM FEW055 SCT250 19/18 A2986 RMK AO2 SLP109 T01890178
 
KSNC - Chester, Connecticut, USA
Distance from station: ESE 39mi, 63km
Updated: Wed, 19-Sep-2018 7:35am EDT
Overcast
Overcast
 Wind from NNE
Wind: NNE 8 mph , 13 km/h, Gust: 14 mph , 22 km/h
Temperature: 68°F , 20°C
Dew Point: 66°F , 19°C
Humidity: 94%
Barometer: 29.86 inHg , 1011.2 hPa
Clouds: Overcast
Visibility: 10 miles , 16 km
Cloud details: Overcast 700 ft
2018/09/19 11:35 KSNC 191135Z AUTO 02007G12KT 10SM OVC007 20/19 A2986 RMK AO2
KHPN - White Plains, New York, USA
Distance from station: SW 42mi, 67km
Updated: Wed, 19-Sep-2018 6:56am EDT
Clear
Clear
 Wind from NNW
Wind: NNW 9 mph , 15 km/h
Temperature: 66°F , 19°C
Dew Point: 64°F , 18°C
Humidity: 94%
Barometer: 29.85 inHg , 1010.8 hPa
Clouds: Clear
Visibility: 10 miles , 16 km
2018/09/19 10:56 KHPN 191056Z 34008KT 10SM CLR 19/18 A2985 RMK AO2 SLP103 T01940183
 
KSWF - Newburgh/Stewart, New York, USA
Distance from station: W 45mi, 72km
Updated: Wed, 19-Sep-2018 6:45am EDT
Clear
Clear
 Wind from calm
Wind: Calm
Temperature: 64°F , 18°C
Dew Point: 64°F , 18°C
Humidity: 100%
Barometer: 29.89 inHg , 1012.2 hPa
Clouds: Clear
Visibility: 10 miles , 16 km
2018/09/19 10:45 KSWF 191045Z 00000KT 10SM SKC 18/18 A2989
KBAF - Westfield, Massachusetts, USA
Distance from station: NNE 50mi, 80km
Updated: Wed, 19-Sep-2018 6:53am EDT
Clear
Clear
 Wind from NNW
Wind: NNW 6 mph , 9 km/h
Temperature: 63°F , 17°C
Dew Point: 63°F , 17°C
Humidity: 100%
Barometer: 29.87 inHg , 1011.5 hPa
Clouds: Clear
Visibility: 9 miles , 14 km
2018/09/19 10:53 KBAF 191053Z 34005KT 9SM CLR 17/17 A2987 RMK AO2 SLP113 T01720172